createdAt,value
2018-01-19T00:01:04.057Z,18.10
2018-01-19T00:03:07.417Z,18.10
2018-01-19T00:05:10.810Z,18.00
2018-01-19T00:07:14.166Z,18.00
2018-01-19T00:09:17.543Z,18.00
2018-01-19T00:11:20.928Z,18.00
2018-01-19T00:13:24.288Z,18.00
2018-01-19T00:15:28.433Z,17.90
2018-01-19T00:17:31.791Z,17.90
2018-01-19T00:19:35.931Z,17.90
2018-01-19T00:21:39.287Z,17.90
2018-01-19T00:23:43.193Z,17.80
2018-01-19T00:25:47.316Z,17.80
2018-01-19T00:27:51.445Z,17.80
2018-01-19T00:29:54.805Z,17.80
2018-01-19T00:31:58.782Z,17.80
2018-01-19T00:34:02.903Z,17.70
2018-01-19T00:36:06.265Z,17.70
2018-01-19T00:38:09.457Z,17.80
2018-01-19T00:40:12.836Z,17.70
2018-01-19T00:42:16.248Z,17.70
2018-01-19T00:44:19.616Z,17.70
2018-01-19T00:46:23.012Z,17.70
2018-01-19T00:48:26.372Z,17.60
2018-01-19T00:50:30.513Z,17.60
2018-01-19T00:52:33.873Z,17.60
2018-01-19T00:54:38.015Z,17.60
2018-01-19T00:56:41.399Z,17.60
2018-01-19T00:58:44.954Z,17.60
2018-01-19T01:00:48.347Z,17.60
2018-01-19T01:02:52.478Z,17.60
2018-01-19T01:04:55.847Z,17.50
2018-01-19T01:06:59.202Z,17.60
2018-01-19T01:09:02.555Z,17.50
2018-01-19T01:11:06.026Z,17.50
2018-01-19T01:13:09.421Z,17.50
2018-01-19T01:15:12.780Z,17.50
2018-01-19T01:17:16.140Z,17.50
2018-01-19T01:19:19.502Z,17.50
2018-01-19T01:21:23.627Z,17.50
2018-01-19T01:23:27.027Z,17.50
2018-01-19T01:25:30.377Z,17.50
2018-01-19T01:27:33.744Z,17.40
2018-01-19T01:29:37.102Z,17.50
2018-01-19T01:31:40.477Z,17.40
2018-01-19T01:33:44.623Z,17.40
2018-01-19T01:35:47.976Z,17.40
2018-01-19T01:37:52.968Z,17.40
2018-01-19T01:39:56.322Z,17.40
2018-01-19T01:41:59.706Z,17.40
2018-01-19T01:44:03.094Z,17.40
2018-01-19T01:46:06.449Z,17.30
2018-01-19T01:48:09.810Z,17.30
2018-01-19T01:50:13.153Z,17.30
2018-01-19T01:52:17.280Z,17.30
2018-01-19T01:54:20.652Z,17.30
2018-01-19T01:56:24.767Z,17.30
2018-01-19T01:58:28.914Z,17.30
2018-01-19T02:00:32.269Z,17.20
2018-01-19T02:02:36.391Z,17.20
2018-01-19T02:04:39.752Z,17.20
2018-01-19T02:06:43.104Z,17.20
2018-01-19T02:08:46.457Z,17.20
2018-01-19T02:10:50.602Z,17.20
2018-01-19T02:12:53.982Z,17.20
2018-01-19T02:14:57.342Z,17.20
2018-01-19T02:17:01.484Z,17.20
2018-01-19T02:19:04.874Z,17.20
2018-01-19T02:21:08.238Z,17.20
2018-01-19T02:23:12.178Z,17.20
2018-01-19T02:25:15.533Z,17.20
2018-01-19T02:27:19.753Z,17.10
2018-01-19T02:29:23.910Z,17.10
2018-01-19T02:31:27.279Z,17.10
2018-01-19T02:33:30.645Z,17.10
2018-01-19T02:35:34.792Z,17.10
2018-01-19T02:37:38.238Z,17.10
2018-01-19T02:39:41.647Z,17.10
2018-01-19T02:41:44.830Z,17.10
2018-01-19T02:43:48.306Z,17.00
2018-01-19T02:45:52.435Z,17.10
2018-01-19T02:47:55.796Z,17.00
2018-01-19T02:49:59.192Z,17.00
2018-01-19T02:52:03.368Z,17.00
2018-01-19T02:54:06.782Z,17.00
2018-01-19T02:56:10.911Z,17.00
2018-01-19T02:58:15.048Z,17.00
2018-01-19T03:00:18.442Z,17.00
2018-01-19T03:02:21.842Z,17.00
2018-01-19T03:04:25.210Z,17.00
2018-01-19T03:06:29.338Z,17.00
2018-01-19T03:08:32.695Z,17.00
2018-01-19T03:10:36.079Z,17.00
2018-01-19T03:12:39.450Z,16.90
2018-01-19T03:14:42.822Z,16.90
2018-01-19T03:16:46.185Z,16.90
2018-01-19T03:18:50.316Z,16.90
2018-01-19T03:20:53.710Z,16.90
2018-01-19T03:22:57.084Z,16.90
2018-01-19T03:25:00.447Z,16.90
2018-01-19T03:27:03.822Z,16.90
2018-01-19T03:29:07.185Z,16.90
2018-01-19T03:31:10.575Z,16.90
2018-01-19T03:33:13.945Z,16.90
2018-01-19T03:35:17.304Z,16.80
2018-01-19T03:37:20.658Z,16.80
2018-01-19T03:39:24.013Z,16.80
2018-01-19T03:41:28.141Z,16.80
2018-01-19T03:43:31.496Z,16.80
2018-01-19T03:45:34.849Z,16.80
2018-01-19T03:47:38.215Z,16.80
2018-01-19T03:49:41.573Z,16.80
2018-01-19T03:51:44.931Z,16.80
2018-01-19T03:53:48.307Z,16.70
2018-01-19T03:55:51.496Z,16.80
2018-01-19T03:57:55.638Z,16.70
2018-01-19T03:59:59.005Z,16.70
2018-01-19T04:02:02.379Z,16.70
2018-01-19T04:04:05.742Z,16.70
2018-01-19T04:06:09.961Z,16.70
2018-01-19T04:08:14.265Z,16.70
2018-01-19T04:10:18.406Z,16.70
2018-01-19T04:12:21.765Z,16.70
2018-01-19T04:14:25.877Z,16.70
2018-01-19T04:16:30.027Z,16.70
2018-01-19T04:18:33.385Z,16.70
2018-01-19T04:20:37.514Z,16.80
2018-01-19T04:22:40.892Z,16.80
2018-01-19T04:24:44.260Z,16.90
2018-01-19T04:26:47.488Z,17.00
2018-01-19T04:28:50.864Z,17.10
2018-01-19T04:30:54.236Z,17.20
2018-01-19T04:32:57.626Z,17.30
2018-01-19T04:35:00.990Z,17.30
2018-01-19T04:37:04.194Z,17.40
2018-01-19T04:39:07.558Z,17.50
2018-01-19T04:41:10.918Z,17.70
2018-01-19T04:43:14.287Z,17.80
2018-01-19T04:45:18.418Z,18.00
2018-01-19T04:47:21.794Z,18.00
2018-01-19T04:49:25.924Z,18.20
2018-01-19T04:51:29.294Z,18.20
2018-01-19T04:53:33.420Z,18.40
2018-01-19T04:55:36.772Z,18.40
2018-01-19T04:57:39.954Z,18.50
2018-01-19T04:59:43.312Z,18.60
2018-01-19T05:01:46.707Z,18.70
2018-01-19T05:03:50.066Z,18.80
2018-01-19T05:05:54.195Z,18.90
2018-01-19T05:07:57.545Z,18.90
2018-01-19T05:10:00.919Z,19.00
2018-01-19T05:12:05.038Z,19.10
2018-01-19T05:14:08.421Z,19.10
2018-01-19T05:16:11.825Z,19.20
2018-01-19T05:18:15.205Z,19.20
2018-01-19T05:20:18.571Z,19.30
2018-01-19T05:22:21.933Z,19.40
2018-01-19T05:24:26.056Z,19.50
2018-01-19T05:26:29.406Z,19.50
2018-01-19T05:28:32.763Z,19.60
2018-01-19T05:30:36.120Z,19.70
2018-01-19T05:32:39.277Z,19.70
2018-01-19T05:34:42.626Z,19.70
2018-01-19T05:36:45.993Z,19.80
2018-01-19T05:38:49.173Z,19.90
2018-01-19T05:40:52.539Z,19.90
2018-01-19T05:42:55.916Z,19.90
2018-01-19T05:44:59.286Z,20.00
2018-01-19T05:47:02.645Z,20.10
2018-01-19T05:49:06.004Z,20.10
2018-01-19T05:51:09.361Z,20.10
2018-01-19T05:53:12.816Z,20.10
2018-01-19T05:55:16.947Z,20.10
2018-01-19T05:57:20.308Z,20.10
2018-01-19T05:59:24.583Z,20.00
2018-01-19T06:01:27.930Z,20.00
2018-01-19T06:03:32.076Z,20.00
2018-01-19T06:05:35.461Z,20.00
2018-01-19T06:07:38.815Z,20.00
2018-01-19T06:09:42.948Z,19.90
2018-01-19T06:11:46.300Z,19.90
2018-01-19T06:13:50.456Z,19.90
2018-01-19T06:15:53.829Z,19.90
2018-01-19T06:17:57.208Z,19.80
2018-01-19T06:20:01.349Z,19.60
2018-01-19T06:22:06.112Z,19.60
2018-01-19T06:24:09.508Z,19.60
2018-01-19T06:26:12.872Z,19.50
2018-01-19T06:28:16.243Z,19.40
2018-01-19T06:30:19.596Z,19.30
2018-01-19T06:32:23.726Z,19.20
2018-01-19T06:34:27.080Z,19.20
2018-01-19T06:36:30.445Z,19.10
2018-01-19T06:38:33.807Z,19.10
2018-01-19T06:40:37.175Z,19.00
2018-01-19T06:42:41.350Z,18.90
2018-01-19T06:44:44.709Z,18.80
2018-01-19T06:46:48.072Z,18.80
2018-01-19T06:48:52.211Z,18.70
2018-01-19T06:50:55.572Z,18.70
2018-01-19T06:52:59.716Z,18.60
2018-01-19T06:55:03.069Z,18.60
2018-01-19T06:57:07.192Z,18.50
2018-01-19T06:59:10.557Z,18.50
2018-01-19T07:01:13.929Z,18.40
2018-01-19T07:03:18.092Z,18.30
2018-01-19T07:05:21.468Z,18.30
2018-01-19T07:07:25.602Z,18.30
2018-01-19T07:09:28.955Z,18.20
2018-01-19T07:11:32.311Z,18.20
2018-01-19T07:13:35.681Z,18.20
2018-01-19T07:15:39.037Z,18.10
2018-01-19T07:17:42.391Z,18.10
2018-01-19T07:19:45.777Z,18.10
2018-01-19T07:21:49.129Z,18.00
2018-01-19T07:23:53.463Z,18.00
2018-01-19T07:25:56.861Z,18.00
2018-01-19T07:28:00.212Z,17.90
2018-01-19T07:30:03.629Z,17.90
2018-01-19T07:32:06.998Z,17.90
2018-01-19T07:34:10.352Z,17.80
2018-01-19T07:36:13.713Z,17.80
2018-01-19T07:38:17.065Z,17.70
2018-01-19T07:40:20.242Z,17.70
2018-01-19T07:42:23.434Z,17.70
2018-01-19T07:44:26.797Z,17.60
2018-01-19T07:46:30.151Z,17.60
2018-01-19T07:48:33.512Z,17.60
2018-01-19T07:50:36.884Z,17.60
2018-01-19T07:52:40.238Z,17.60
2018-01-19T07:54:43.601Z,17.50
2018-01-19T07:56:47.716Z,17.50
2018-01-19T07:58:51.857Z,17.40
2018-01-19T08:00:56.153Z,17.40
2018-01-19T08:03:00.285Z,17.40
2018-01-19T08:05:03.649Z,17.40
2018-01-19T08:07:07.776Z,17.40
2018-01-19T08:09:11.155Z,17.40
2018-01-19T08:11:14.512Z,17.30
2018-01-19T08:13:17.873Z,17.30
2018-01-19T08:15:21.227Z,17.30
2018-01-19T08:17:25.377Z,17.30
2018-01-19T08:19:28.729Z,17.30
2018-01-19T08:21:32.844Z,17.20
2018-01-19T08:23:36.202Z,17.20
2018-01-19T08:25:39.556Z,17.20
2018-01-19T08:27:42.923Z,17.20
2018-01-19T08:29:46.294Z,17.20
2018-01-19T08:31:50.406Z,17.10
2018-01-19T08:33:54.517Z,17.10
2018-01-19T08:35:58.648Z,17.10
2018-01-19T08:38:02.024Z,17.10
2018-01-19T08:40:05.378Z,17.10
2018-01-19T08:42:08.542Z,17.00
2018-01-19T08:44:12.677Z,17.00
2018-01-19T08:46:16.037Z,17.00
2018-01-19T08:48:19.396Z,17.00
2018-01-19T08:50:22.758Z,17.00
2018-01-19T08:52:26.129Z,17.00
2018-01-19T08:54:29.490Z,17.00
2018-01-19T08:56:32.871Z,17.00
2018-01-19T08:58:36.227Z,16.90
2018-01-19T09:00:39.610Z,16.90
2018-01-19T09:02:42.968Z,16.90
2018-01-19T09:04:46.322Z,16.90
2018-01-19T09:06:50.446Z,16.80
2018-01-19T09:08:53.809Z,16.80
2018-01-19T09:10:57.945Z,16.80
2018-01-19T09:13:02.060Z,16.80
2018-01-19T09:15:05.426Z,16.80
2018-01-19T09:17:09.549Z,16.80
2018-01-19T09:19:13.679Z,16.80
2018-01-19T09:21:17.073Z,16.80
2018-01-19T09:23:21.384Z,16.80
2018-01-19T09:25:24.802Z,16.80
2018-01-19T09:27:28.320Z,16.80
2018-01-19T09:29:31.685Z,16.80
2018-01-19T09:31:35.038Z,16.70
2018-01-19T09:33:39.175Z,16.70
2018-01-19T09:35:42.563Z,16.70
2018-01-19T09:37:45.929Z,16.70
2018-01-19T09:39:49.288Z,16.70
2018-01-19T09:41:52.640Z,16.70
2018-01-19T09:43:56.003Z,16.70
2018-01-19T09:46:00.146Z,16.70
2018-01-19T09:48:03.505Z,16.70
2018-01-19T09:50:06.885Z,16.70
2018-01-19T09:52:11.008Z,16.70
2018-01-19T09:54:14.951Z,16.70
2018-01-19T09:56:18.309Z,16.70
2018-01-19T09:58:21.686Z,16.70
2018-01-19T10:00:25.817Z,16.60
2018-01-19T10:02:29.165Z,16.60
2018-01-19T10:04:32.510Z,16.60
2018-01-19T10:06:35.920Z,16.60
2018-01-19T10:08:39.282Z,16.60
2018-01-19T10:10:42.641Z,16.60
2018-01-19T10:12:46.028Z,16.60
2018-01-19T10:14:49.390Z,16.60
2018-01-19T10:16:52.760Z,16.60
2018-01-19T10:18:56.180Z,16.60
2018-01-19T10:21:00.462Z,16.60
2018-01-19T10:23:03.839Z,16.60
2018-01-19T10:25:07.206Z,16.60
2018-01-19T10:27:10.569Z,16.60
2018-01-19T10:29:13.919Z,16.60
2018-01-19T10:31:17.273Z,16.60
2018-01-19T10:33:20.634Z,16.50
2018-01-19T10:35:23.996Z,16.50
2018-01-19T10:37:27.375Z,16.60
2018-01-19T10:39:31.488Z,16.50
2018-01-19T10:41:34.858Z,16.50
2018-01-19T10:43:39.029Z,16.50
2018-01-19T10:45:42.382Z,16.50
2018-01-19T10:47:46.583Z,16.50
2018-01-19T10:49:50.702Z,16.50
2018-01-19T10:51:54.577Z,16.50
2018-01-19T10:53:57.990Z,16.50
2018-01-19T10:56:01.351Z,16.50
2018-01-19T10:58:04.503Z,16.40
2018-01-19T11:00:07.858Z,16.50
2018-01-19T11:02:11.997Z,16.50
2018-01-19T11:04:15.369Z,16.50
2018-01-19T11:06:18.729Z,16.50
2018-01-19T11:08:22.090Z,16.60
2018-01-19T11:10:25.441Z,16.60
2018-01-19T11:12:29.582Z,16.80
2018-01-19T11:14:32.942Z,16.80
2018-01-19T11:16:36.307Z,16.90
2018-01-19T11:18:39.671Z,16.90
2018-01-19T11:20:43.051Z,17.00
2018-01-19T11:22:46.438Z,17.00
2018-01-19T11:24:49.806Z,17.10
2018-01-19T11:26:53.946Z,17.20
2018-01-19T11:28:57.309Z,17.20
2018-01-19T11:31:01.435Z,17.40
2018-01-19T11:33:04.800Z,17.40
2018-01-19T11:35:08.931Z,17.60
2018-01-19T11:37:12.293Z,17.60
2018-01-19T11:39:15.665Z,17.80
2018-01-19T11:41:19.045Z,17.90
2018-01-19T11:43:22.423Z,18.00
2018-01-19T11:45:25.808Z,18.10
2018-01-19T11:47:31.052Z,18.40
2018-01-19T11:49:35.254Z,18.50
2018-01-19T11:51:38.615Z,18.50
2018-01-19T11:53:41.973Z,18.60
2018-01-19T11:55:45.329Z,18.70
2018-01-19T11:57:48.690Z,18.70
2018-01-19T11:59:52.608Z,18.90
2018-01-19T12:01:55.779Z,18.90
2018-01-19T12:03:59.957Z,19.00
2018-01-19T12:06:03.498Z,19.00
2018-01-19T12:08:06.862Z,19.10
2018-01-19T12:10:10.217Z,19.20
2018-01-19T12:12:13.641Z,19.30
2018-01-19T12:14:17.025Z,19.30
2018-01-19T12:16:20.397Z,19.40
2018-01-19T12:18:24.518Z,19.60
2018-01-19T12:20:27.928Z,19.60
2018-01-19T12:22:31.282Z,19.60
2018-01-19T12:24:34.668Z,19.70
2018-01-19T12:26:38.033Z,19.80
2018-01-19T12:28:42.199Z,19.90
2018-01-19T12:30:45.589Z,19.90
2018-01-19T12:32:48.955Z,19.90
2018-01-19T12:34:52.337Z,19.90
2018-01-19T12:36:55.689Z,19.90
2018-01-19T12:38:59.044Z,19.90
2018-01-19T12:41:02.455Z,20.00
2018-01-19T12:43:05.827Z,19.90
2018-01-19T12:45:09.218Z,19.90
2018-01-19T12:47:12.580Z,19.90
2018-01-19T12:49:15.949Z,19.90
2018-01-19T12:51:20.090Z,19.90
2018-01-19T12:53:23.449Z,19.90
2018-01-19T12:55:27.590Z,19.80
2018-01-19T12:57:30.956Z,19.90
2018-01-19T12:59:35.087Z,19.80
2018-01-19T13:01:38.480Z,19.80
2018-01-19T13:03:41.837Z,19.80
2018-01-19T13:05:45.209Z,19.70
2018-01-19T13:07:48.603Z,19.70
2018-01-19T13:09:52.028Z,19.70
2018-01-19T13:11:55.434Z,19.60
2018-01-19T13:13:59.624Z,19.60
2018-01-19T13:16:03.007Z,19.60
2018-01-19T13:18:06.353Z,19.60
2018-01-19T13:20:09.723Z,19.50
2018-01-19T13:22:13.107Z,19.50
2018-01-19T13:24:17.246Z,19.40
2018-01-19T13:26:20.612Z,19.40
2018-01-19T13:28:23.985Z,19.40
2018-01-19T13:30:28.313Z,19.30
2018-01-19T13:32:31.702Z,19.30
2018-01-19T13:34:35.821Z,19.20
2018-01-19T13:36:39.181Z,19.20
2018-01-19T13:38:42.540Z,19.20
2018-01-19T13:40:45.896Z,19.10
2018-01-19T13:42:50.052Z,19.00
2018-01-19T13:44:53.471Z,19.00
2018-01-19T13:46:57.690Z,19.00
2018-01-19T13:49:01.937Z,18.90
2018-01-19T13:51:05.774Z,18.90
2018-01-19T13:53:09.185Z,18.90
2018-01-19T13:55:12.651Z,18.80
2018-01-19T13:57:16.169Z,18.80
2018-01-19T13:59:19.782Z,18.80
2018-01-19T14:01:23.341Z,18.80
2018-01-19T14:03:26.858Z,18.80
2018-01-19T14:05:31.293Z,18.80
2018-01-19T14:07:35.454Z,18.70
2018-01-19T14:09:38.848Z,18.70
2018-01-19T14:11:42.328Z,18.70
2018-01-19T14:13:45.893Z,18.70
2018-01-19T14:15:49.180Z,18.70
2018-01-19T14:17:52.721Z,18.70
2018-01-19T14:19:56.103Z,18.70
2018-01-19T14:21:59.474Z,18.70
2018-01-19T14:24:03.137Z,18.70
2018-01-19T14:26:08.068Z,18.70
2018-01-19T14:28:12.383Z,18.70
2018-01-19T14:30:15.933Z,18.70
2018-01-19T14:32:19.317Z,18.70
2018-01-19T14:34:22.989Z,18.60
2018-01-19T14:36:27.134Z,18.60
2018-01-19T14:38:30.768Z,18.60
2018-01-19T14:40:34.655Z,18.60
2018-01-19T14:42:37.852Z,18.60
2018-01-19T14:44:41.366Z,18.60
2018-01-19T14:46:44.777Z,18.60
2018-01-19T14:48:48.313Z,18.60
2018-01-19T14:50:51.701Z,18.60
2018-01-19T14:52:55.110Z,18.60
2018-01-19T14:54:58.534Z,18.60
2018-01-19T14:57:02.357Z,18.70
2018-01-19T14:59:06.568Z,18.70
2018-01-19T15:01:10.732Z,18.80
2018-01-19T15:03:14.100Z,18.80
2018-01-19T15:05:17.514Z,18.80
2018-01-19T15:07:20.943Z,18.90
2018-01-19T15:09:24.354Z,18.90
2018-01-19T15:11:28.496Z,19.00
2018-01-19T15:13:31.858Z,19.00
2018-01-19T15:15:35.240Z,19.00
2018-01-19T15:17:39.869Z,19.20
2018-01-19T15:19:44.466Z,19.20
2018-01-19T15:21:47.912Z,19.20
2018-01-19T15:23:51.280Z,19.30
2018-01-19T15:25:54.880Z,19.40
2018-01-19T15:27:58.269Z,19.40
2018-01-19T15:30:02.310Z,19.40
2018-01-19T15:32:06.722Z,19.40
2018-01-19T15:34:10.188Z,19.40
2018-01-19T15:36:13.681Z,19.50
2018-01-19T15:38:18.271Z,19.40
2018-01-19T15:40:21.694Z,19.40
2018-01-19T15:42:25.834Z,19.50
2018-01-19T15:44:29.193Z,19.40
2018-01-19T15:46:33.376Z,19.40
2018-01-19T15:48:36.735Z,19.40
2018-01-19T15:50:40.163Z,19.40
2018-01-19T15:52:43.553Z,19.40
2018-01-19T15:54:46.698Z,19.40
2018-01-19T15:56:50.093Z,19.40
2018-01-19T15:58:53.481Z,19.40
2018-01-19T16:00:57.041Z,19.40
2018-01-19T16:03:01.163Z,19.40
2018-01-19T16:05:05.314Z,19.30
2018-01-19T16:07:08.773Z,19.30
2018-01-19T16:09:12.139Z,19.30
2018-01-19T16:11:15.532Z,19.30
2018-01-19T16:13:18.949Z,19.30
2018-01-19T16:15:22.360Z,19.20
2018-01-19T16:17:25.755Z,19.20
2018-01-19T16:19:29.132Z,19.10
2018-01-19T16:21:32.550Z,18.80
2018-01-19T16:23:35.904Z,18.50
2018-01-19T16:25:40.066Z,18.30
2018-01-19T16:27:43.600Z,18.30
2018-01-19T16:29:47.586Z,18.20
2018-01-19T16:31:51.155Z,18.10
2018-01-19T16:33:54.606Z,18.20
2018-01-19T16:35:58.741Z,18.20
2018-01-19T16:38:02.208Z,18.20
2018-01-19T16:40:06.338Z,18.20
2018-01-19T16:42:09.770Z,18.20
2018-01-19T16:44:12.947Z,18.20
2018-01-19T16:46:16.214Z,18.30
2018-01-19T16:48:19.714Z,18.30
2018-01-19T16:50:23.149Z,18.30
2018-01-19T16:52:27.567Z,18.40
2018-01-19T16:54:30.924Z,18.40
2018-01-19T16:56:34.319Z,18.50
2018-01-19T16:58:37.752Z,18.60
2018-01-19T17:00:41.172Z,18.70
2018-01-19T17:02:45.428Z,18.80
2018-01-19T17:04:48.787Z,18.80
2018-01-19T17:06:52.219Z,18.80
2018-01-19T17:08:55.652Z,18.90
2018-01-19T17:10:59.814Z,19.00
2018-01-19T17:13:03.219Z,19.00
2018-01-19T17:15:06.600Z,19.10
2018-01-19T17:17:09.989Z,19.10
2018-01-19T17:19:13.424Z,19.20
2018-01-19T17:21:17.559Z,19.30
2018-01-19T17:23:21.004Z,19.30
2018-01-19T17:25:25.634Z,19.30
2018-01-19T17:27:29.074Z,19.40
2018-01-19T17:29:32.512Z,19.40
2018-01-19T17:31:36.177Z,19.40
2018-01-19T17:33:39.584Z,19.50
2018-01-19T17:35:42.958Z,19.50
2018-01-19T17:37:46.383Z,19.60
2018-01-19T17:39:49.818Z,19.60
2018-01-19T17:41:53.949Z,19.70
2018-01-19T17:43:57.372Z,19.70
2018-01-19T17:46:00.751Z,19.90
2018-01-19T17:48:04.006Z,20.00
2018-01-19T17:50:07.468Z,20.20
2018-01-19T17:52:10.841Z,20.40
2018-01-19T17:54:14.244Z,20.50
2018-01-19T17:56:17.649Z,20.60
2018-01-19T17:58:21.313Z,20.70
2018-01-19T18:00:24.730Z,20.80
2018-01-19T18:02:28.119Z,20.80
2018-01-19T18:04:31.530Z,20.70
2018-01-19T18:06:34.951Z,20.70
2018-01-19T18:08:38.323Z,20.70
2018-01-19T18:10:41.724Z,20.70
2018-01-19T18:12:45.882Z,20.60
2018-01-19T18:14:49.266Z,20.60
2018-01-19T18:16:52.675Z,20.60
2018-01-19T18:18:56.024Z,20.50
2018-01-19T18:20:59.412Z,20.40
2018-01-19T18:23:03.688Z,20.30
2018-01-19T18:25:07.919Z,20.20
2018-01-19T18:27:11.346Z,20.10
2018-01-19T18:29:14.827Z,20.10
2018-01-19T18:31:18.259Z,20.00
2018-01-19T18:33:23.125Z,19.90
2018-01-19T18:35:27.382Z,19.80
2018-01-19T18:37:31.059Z,19.80
2018-01-19T18:39:34.447Z,19.70
2018-01-19T18:41:39.094Z,19.60
2018-01-19T18:43:42.476Z,19.50
2018-01-19T18:45:45.737Z,19.40
2018-01-19T18:47:49.768Z,19.30
2018-01-19T18:49:53.145Z,19.30
2018-01-19T18:51:57.336Z,19.20
2018-01-19T18:54:00.777Z,19.20
2018-01-19T18:56:04.308Z,19.10
2018-01-19T18:58:07.685Z,19.00
2018-01-19T19:00:11.056Z,19.00
2018-01-19T19:02:14.450Z,19.00
2018-01-19T19:04:17.831Z,18.90
2018-01-19T19:06:21.226Z,18.80
2018-01-19T19:08:24.613Z,18.80
2018-01-19T19:10:28.160Z,18.80
2018-01-19T19:12:31.538Z,18.80
2018-01-19T19:14:34.957Z,18.70
2018-01-19T19:16:38.346Z,18.60
2018-01-19T19:18:41.709Z,18.60
2018-01-19T19:20:45.073Z,18.70
2018-01-19T19:22:48.505Z,18.70
2018-01-19T19:24:51.702Z,18.70
2018-01-19T19:26:54.927Z,18.80
2018-01-19T19:28:59.058Z,18.90
2018-01-19T19:31:02.427Z,18.90
2018-01-19T19:33:06.566Z,19.00
2018-01-19T19:35:10.825Z,19.10
2018-01-19T19:37:14.242Z,19.10
2018-01-19T19:39:17.690Z,19.20
2018-01-19T19:41:21.082Z,19.30
2018-01-19T19:43:24.391Z,19.40
2018-01-19T19:45:27.785Z,19.50
2018-01-19T19:47:31.221Z,19.60
2018-01-19T19:49:34.607Z,19.60
2018-01-19T19:51:37.979Z,19.70
2018-01-19T19:53:41.449Z,19.80
2018-01-19T19:55:44.893Z,19.90
2018-01-19T19:57:48.311Z,20.00
2018-01-19T19:59:51.709Z,20.10
2018-01-19T20:01:55.144Z,20.20
2018-01-19T20:03:59.305Z,20.30
2018-01-19T20:06:04.725Z,20.30
2018-01-19T20:08:08.150Z,20.40
2018-01-19T20:10:11.511Z,20.50
2018-01-19T20:12:14.910Z,20.60
2018-01-19T20:14:18.305Z,20.70
2018-01-19T20:16:21.698Z,20.70
2018-01-19T20:18:25.130Z,20.80
2018-01-19T20:20:28.534Z,20.90
2018-01-19T20:22:31.978Z,20.90
2018-01-19T20:24:35.389Z,20.90
2018-01-19T20:26:38.760Z,21.00
2018-01-19T20:28:41.990Z,21.00
2018-01-19T20:30:45.390Z,21.00
2018-01-19T20:32:48.843Z,21.00
2018-01-19T20:34:52.253Z,21.00
2018-01-19T20:36:55.669Z,21.00
2018-01-19T20:38:59.846Z,20.90
2018-01-19T20:41:03.196Z,20.90
2018-01-19T20:43:07.340Z,20.80
2018-01-19T20:45:10.756Z,20.80
2018-01-19T20:47:14.168Z,20.80
2018-01-19T20:49:18.316Z,20.70
2018-01-19T20:51:21.718Z,20.60
2018-01-19T20:53:25.128Z,20.60
2018-01-19T20:55:28.525Z,20.50
2018-01-19T20:57:31.885Z,20.40
2018-01-19T20:59:35.273Z,20.30
2018-01-19T21:01:38.728Z,20.20
2018-01-19T21:03:41.907Z,20.10
2018-01-19T21:05:45.097Z,20.10
2018-01-19T21:07:48.545Z,20.00
2018-01-19T21:09:51.946Z,20.00
2018-01-19T21:11:55.409Z,20.00
2018-01-19T21:13:59.381Z,19.90
2018-01-19T21:16:02.740Z,19.90
2018-01-19T21:18:06.111Z,19.80
2018-01-19T21:20:09.486Z,19.80
2018-01-19T21:22:14.009Z,19.70
2018-01-19T21:24:18.188Z,19.60
2018-01-19T21:26:21.601Z,19.60
2018-01-19T21:28:25.012Z,19.50
2018-01-19T21:30:29.158Z,19.50
2018-01-19T21:32:32.542Z,19.40
2018-01-19T21:34:36.029Z,19.40
2018-01-19T21:36:39.406Z,19.30
2018-01-19T21:38:42.788Z,19.30
2018-01-19T21:40:46.918Z,19.20
2018-01-19T21:42:50.407Z,19.20
2018-01-19T21:44:53.790Z,19.20
2018-01-19T21:46:57.904Z,19.10
2018-01-19T21:49:01.294Z,19.10
2018-01-19T21:51:04.447Z,19.10
2018-01-19T21:53:07.809Z,19.00
2018-01-19T21:55:11.200Z,19.00
2018-01-19T21:57:14.562Z,18.90
2018-01-19T21:59:17.954Z,18.90
2018-01-19T22:01:21.323Z,18.80
2018-01-19T22:03:25.516Z,18.70
2018-01-19T22:05:28.882Z,18.70
2018-01-19T22:07:32.243Z,18.60
2018-01-19T22:09:35.630Z,18.60
2018-01-19T22:11:38.990Z,18.60
2018-01-19T22:13:42.356Z,18.50
2018-01-19T22:15:45.718Z,18.50
2018-01-19T22:17:49.087Z,18.40
2018-01-19T22:19:53.247Z,18.30
2018-01-19T22:21:56.623Z,18.30
2018-01-19T22:23:59.994Z,18.30
2018-01-19T22:26:03.377Z,18.30
2018-01-19T22:28:07.499Z,18.20
2018-01-19T22:30:10.884Z,18.20
2018-01-19T22:32:14.248Z,18.20
2018-01-19T22:34:17.612Z,18.10
2018-01-19T22:36:20.968Z,18.10
2018-01-19T22:40:34.171Z,18.10
2018-01-19T22:42:38.307Z,18.00
2018-01-19T22:44:41.674Z,18.00
2018-01-19T22:46:45.034Z,18.00
2018-01-19T22:48:48.382Z,18.00
2018-01-19T22:50:51.774Z,17.90
2018-01-19T22:52:55.147Z,17.90
2018-01-19T22:54:59.269Z,17.90
2018-01-19T22:57:03.624Z,17.80
2018-01-19T22:59:06.814Z,17.80
2018-01-19T23:01:10.233Z,17.80
2018-01-19T23:03:13.602Z,17.80
2018-01-19T23:05:16.966Z,17.80
2018-01-19T23:07:20.351Z,17.70
2018-01-19T23:09:23.725Z,17.70
2018-01-19T23:11:27.876Z,17.70
2018-01-19T23:13:31.255Z,17.70
2018-01-19T23:15:34.613Z,17.60
2018-01-19T23:17:38.760Z,17.60
2018-01-19T23:19:42.117Z,17.60
2018-01-19T23:21:46.264Z,17.60
2018-01-19T23:23:49.635Z,17.60
2018-01-19T23:25:53.012Z,17.50
2018-01-19T23:27:57.137Z,17.50
2018-01-19T23:30:00.504Z,17.50
2018-01-19T23:32:03.902Z,17.50
2018-01-19T23:34:08.028Z,17.50
2018-01-19T23:36:11.400Z,17.40
2018-01-19T23:38:14.833Z,17.40
2018-01-19T23:40:18.185Z,17.40
2018-01-19T23:42:22.353Z,17.40
2018-01-19T23:44:25.719Z,17.40
2018-01-19T23:46:29.089Z,17.40
2018-01-19T23:48:33.242Z,17.30
2018-01-19T23:50:36.598Z,17.30
2018-01-19T23:52:40.750Z,17.30
2018-01-19T23:54:44.395Z,17.30
2018-01-19T23:56:47.890Z,17.30
2018-01-19T23:58:52.136Z,17.20
